< < Back
Terminal Aerodrome Forecast


Current Version              Previous Versions:   1  2  3  4  5  6  7  8  9  

Terminal Aerodrome Forecast

502
FTUS42 KGSP 281946 AAA
TAFAVL
TAF AMD
KAVL 281946Z 2820/2918 01008KT P6SM SKC
     FM290200 18003KT P6SM FEW250
     FM290400 00000KT P6SM FEW250
     FM291600 18007KT P6SM BKN140=



Latest METAR

038
SAUS70 KWBC 282000 RRP
MTRAVL
METAR KAVL 281954Z 35011KT 10SM CLR 07/M09 A3018 RMK AO2 SLP229
T00721094


USA.gov is the U.S. government's official web portal to all federal, state and local government web resources and services.